Time;durP1;ratioP1;P1;durP2;ratioP2;P2;SDS_P1;SDS_P2;PMS_P1;PMS_P2;Temp;Humidity;BMP_temperature;BMP_pressure;BME280_temperature;BME280_humidity;BME280_pressure;Samples;Min_cycle;Max_cycle;Signal;HPM_P1;HPM_P2
2022/03/25 00:02:09;;;;;;;19.57;6.97;;;;;;;39.10;39.30;100822.69;4787707;30;20459;-69
2022/03/25 00:04:35;;;;;;;12.93;6.70;;;;;;;39.04;39.04;100821.25;4787922;29;20436;-72
2022/03/25 00:07:01;;;;;;;12.20;5.30;;;;;;;39.07;38.72;100815.19;4788211;29;20463;-69
2022/03/25 00:09:27;;;;;;;13.20;6.47;;;;;;;39.16;38.41;100805.16;4788013;29;20428;-69
2022/03/25 00:11:54;;;;;;;13.20;7.23;;;;;;;39.11;38.79;100801.81;4787718;29;21022;-69
2022/03/25 00:14:20;;;;;;;20.93;7.43;;;;;;;39.21;38.69;100796.09;4788994;29;20802;-69
2022/03/25 00:16:46;;;;;;;12.00;6.20;;;;;;;39.22;38.39;100786.81;4788903;29;20430;-71
2022/03/25 00:19:13;;;;;;;18.67;6.10;;;;;;;39.14;39.00;100782.16;4787784;29;20513;-71
2022/03/25 00:21:39;;;;;;;14.47;6.87;;;;;;;39.22;38.68;100776.78;4787499;30;20831;-72
2022/03/25 00:24:06;;;;;;;20.13;8.20;;;;;;;39.16;39.01;100769.09;4787500;29;20443;-70
2022/03/25 00:26:32;;;;;;;15.23;6.30;;;;;;;39.02;39.78;100777.34;4788542;29;20487;-69
2022/03/25 00:28:58;;;;;;;19.20;5.87;;;;;;;39.09;39.14;100766.03;4787537;29;20442;-70
2022/03/25 00:31:24;;;;;;;22.90;7.43;;;;;;;39.12;39.03;100751.84;4787720;30;20969;-71
2022/03/25 00:33:50;;;;;;;19.13;5.90;;;;;;;39.09;38.78;100750.56;4788564;29;20457;-70
2022/03/25 00:36:22;;;;;;;9.27;5.87;;;;;;;39.14;38.82;100750.41;4772557;30;20431;-71
2022/03/25 00:38:49;;;;;;;19.27;8.10;;;;;;;39.12;38.91;100736.38;4787243;29;20435;-71
2022/03/25 00:41:16;;;;;;;14.87;7.87;;;;;;;39.12;38.90;100728.22;4788552;29;20452;-71
2022/03/25 00:43:46;;;;;;;16.53;6.43;;;;;;;39.03;38.86;100721.97;4787276;30;20446;-71
2022/03/25 00:46:13;;;;;;;13.43;6.63;;;;;;;39.08;39.16;100715.59;4786907;29;20493;-69
2022/03/25 00:48:39;;;;;;;19.43;6.47;;;;;;;39.01;39.34;100713.38;4786906;30;20485;-69
2022/03/25 00:51:06;;;;;;;14.43;7.33;;;;;;;39.04;39.13;100726.31;4786873;29;20544;-70
2022/03/25 00:53:32;;;;;;;13.97;7.27;;;;;;;39.07;39.47;100714.03;4787061;30;20442;-69
2022/03/25 00:56:03;;;;;;;12.60;6.50;;;;;;;39.10;40.10;100722.34;4786741;29;20871;-72
2022/03/25 00:58:30;;;;;;;15.60;8.07;;;;;;;38.98;40.79;100714.03;4786904;29;20423;-71
2022/03/25 01:00:56;;;;;;;18.27;6.70;;;;;;;38.95;41.40;100722.78;4786731;29;20463;-71
2022/03/25 01:03:22;;;;;;;23.00;8.40;;;;;;;39.04;41.24;100718.19;4787687;29;20458;-71
2022/03/25 01:05:49;;;;;;;18.87;7.33;;;;;;;39.12;40.76;100728.22;4786758;30;21215;-69
2022/03/25 01:08:16;;;;;;;21.13;5.40;;;;;;;39.13;40.72;100727.09;4786654;29;20442;-70
2022/03/25 01:10:45;;;;;;;14.93;6.67;;;;;;;39.10;40.64;100725.03;4786903;30;20526;-69
2022/03/25 01:13:11;;;;;;;16.40;7.67;;;;;;;39.08;40.58;100716.41;4786720;30;20497;-69
2022/03/25 01:15:38;;;;;;;12.33;6.23;;;;;;;39.05;41.05;100713.53;4786520;29;20515;-69
2022/03/25 01:18:04;;;;;;;23.27;6.60;;;;;;;39.05;41.28;100717.06;4787901;29;20503;-69
2022/03/25 01:20:31;;;;;;;16.30;7.10;;;;;;;39.03;40.85;100713.84;4786511;29;20435;-69
2022/03/25 01:22:57;;;;;;;27.33;7.80;;;;;;;39.16;40.37;100718.34;4786600;29;20430;-72
2022/03/25 01:25:24;;;;;;;28.07;8.57;;;;;;;39.16;40.54;100712.91;4787665;29;20511;-72
2022/03/25 01:27:50;;;;;;;13.73;5.93;;;;;;;39.07;40.65;100703.97;4786463;29;20965;-71
2022/03/25 01:30:16;;;;;;;15.63;6.30;;;;;;;39.17;40.52;100703.69;4786433;29;20442;-71
2022/03/25 01:32:42;;;;;;;19.20;7.00;;;;;;;39.15;40.00;100697.72;4786275;29;20983;-71
2022/03/25 01:35:12;;;;;;;17.60;6.30;;;;;;;39.22;39.94;100692.66;4786357;29;20442;-69
2022/03/25 01:37:38;;;;;;;12.93;6.20;;;;;;;39.26;40.15;100687.41;4786386;30;20439;-69
2022/03/25 01:40:09;;;;;;;14.87;6.57;;;;;;;39.24;39.38;100684.22;4786079;29;20459;-71
2022/03/25 01:42:37;;;;;;;12.33;6.43;;;;;;;39.31;39.59;100683.75;4787629;29;20415;-69
2022/03/25 01:45:05;;;;;;;14.83;6.10;;;;;;;39.36;39.51;100680.88;4786071;30;20479;-69
2022/03/25 01:47:32;;;;;;;16.33;6.60;;;;;;;39.20;39.88;100675.13;4785935;30;20487;-69
2022/03/25 01:50:00;;;;;;;19.97;7.43;;;;;;;38.92;40.20;100667.25;4771351;30;20505;-69
2022/03/25 01:52:28;;;;;;;18.00;6.27;;;;;;;38.92;40.40;100666.47;4786127;30;20939;-69
2022/03/25 01:54:55;;;;;;;17.13;6.33;;;;;;;38.94;39.88;100673.16;4786071;30;20500;-70
2022/03/25 01:57:25;;;;;;;31.87;9.67;;;;;;;39.01;39.92;100672.69;4785956;29;20431;-70
2022/03/25 01:59:54;;;;;;;15.33;6.73;;;;;;;39.01;40.22;100666.47;4786020;29;20446;-71
2022/03/25 02:02:20;;;;;;;15.87;9.60;;;;;;;39.00;39.75;100657.53;4785937;29;20467;-69
2022/03/25 02:04:47;;;;;;;17.00;6.80;;;;;;;38.93;40.08;100665.34;4787129;29;20411;-70
2022/03/25 02:07:13;;;;;;;18.93;7.40;;;;;;;38.90;40.09;100674.91;4785877;29;20435;-70
2022/03/25 02:09:39;;;;;;;16.10;6.30;;;;;;;38.93;39.89;100670.78;4785711;29;20431;-70
2022/03/25 02:12:06;;;;;;;13.63;5.73;;;;;;;38.86;39.88;100667.75;4786993;29;20983;-71
2022/03/25 02:14:32;;;;;;;12.00;5.20;;;;;;;38.80;40.10;100669.00;4785620;29;20438;-71
2022/03/25 02:16:59;;;;;;;16.07;6.13;;;;;;;38.86;40.14;100668.53;4770178;30;20479;-72
2022/03/25 02:19:25;;;;;;;13.37;6.93;;;;;;;38.78;39.83;100669.31;4785626;29;20462;-72
2022/03/25 02:21:51;;;;;;;15.43;5.80;;;;;;;38.93;39.61;100668.06;4786964;29;20892;-72
2022/03/25 02:24:17;;;;;;;19.80;7.40;;;;;;;38.91;39.39;100667.56;4785700;29;20442;-71
2022/03/25 02:26:46;;;;;;;16.57;6.10;;;;;;;38.99;39.27;100671.41;4785448;30;20514;-71
2022/03/25 02:29:16;;;;;;;15.07;5.77;;;;;;;39.02;39.15;100674.28;4771254;30;20466;-71
2022/03/25 02:31:42;;;;;;;12.43;5.77;;;;;;;39.02;39.22;100673.47;4785488;30;20459;-70
2022/03/25 02:34:09;;;;;;;14.90;9.30;;;;;;;39.02;39.56;100674.28;4786120;29;20900;-69
2022/03/25 02:36:37;;;;;;;21.33;6.57;;;;;;;39.05;39.21;100678.28;4785672;30;20546;-72
2022/03/25 02:39:05;;;;;;;12.73;5.30;;;;;;;38.98;39.45;100673.34;4785528;29;20431;-71
2022/03/25 02:41:31;;;;;;;15.83;6.50;;;;;;;39.00;39.15;100675.72;4786721;29;20454;-72
2022/03/25 02:43:57;;;;;;;14.87;5.77;;;;;;;38.96;38.91;100664.69;4785490;29;20439;-72
2022/03/25 02:46:23;;;;;;;19.30;6.77;;;;;;;38.99;39.39;100668.72;4785451;29;20481;-71
2022/03/25 02:48:49;;;;;;;18.97;7.60;;;;;;;38.98;39.08;100667.91;4785234;29;20502;-71
2022/03/25 02:51:15;;;;;;;16.20;5.30;;;;;;;39.02;39.06;100674.28;4785424;29;20435;-71
2022/03/25 02:53:41;;;;;;;12.50;6.00;;;;;;;38.98;39.36;100676.03;4785449;29;20445;-71
2022/03/25 02:56:07;;;;;;;20.63;8.37;;;;;;;38.98;39.24;100673.34;4785718;29;20521;-71
2022/03/25 02:58:34;;;;;;;10.20;5.80;;;;;;;39.03;39.08;100675.88;4785357;29;20525;-70
2022/03/25 03:01:00;;;;;;;13.70;6.30;;;;;;;39.06;38.85;100664.41;4785219;29;20462;-71
2022/03/25 03:03:26;;;;;;;12.10;6.43;;;;;;;39.01;38.76;100671.88;4785375;29;20541;-70
2022/03/25 03:05:53;;;;;;;21.53;6.40;;;;;;;39.01;38.78;100667.25;4770498;30;20897;-67
2022/03/25 03:08:19;;;;;;;13.20;6.17;;;;;;;39.05;39.42;100672.84;4785210;29;20435;-72
2022/03/25 03:10:45;;;;;;;22.87;6.20;;;;;;;39.04;39.60;100691.06;4785296;29;20431;-72
2022/03/25 03:13:13;;;;;;;26.17;6.63;;;;;;;39.10;39.41;100673.50;4785345;29;20434;-71
2022/03/25 03:15:39;;;;;;;11.40;6.83;;;;;;;39.06;39.80;100688.81;4770476;30;20927;-71
2022/03/25 03:18:06;;;;;;;13.07;6.30;;;;;;;39.03;39.66;100688.63;4786576;29;20416;-69
2022/03/25 03:20:32;;;;;;;23.00;6.63;;;;;;;39.00;39.90;100684.66;4785265;29;20497;-70
2022/03/25 03:22:59;;;;;;;16.63;8.33;;;;;;;38.93;39.82;100693.25;4786465;29;20916;-69
2022/03/25 03:25:28;;;;;;;12.27;6.13;;;;;;;39.00;39.61;100695.50;4785188;29;20467;-69
2022/03/25 03:27:54;;;;;;;15.00;5.47;;;;;;;38.99;39.57;100699.34;4787205;29;20445;-70
2022/03/25 03:30:20;;;;;;;16.00;4.50;;;;;;;39.00;39.51;100694.72;4788461;30;20438;-71
2022/03/25 03:32:47;;;;;;;22.57;7.33;;;;;;;39.03;39.35;100696.78;4788440;29;20481;-71
2022/03/25 03:35:14;;;;;;;14.47;6.10;;;;;;;39.01;39.38;100699.00;4788361;30;20430;-71
2022/03/25 03:37:45;;;;;;;14.60;7.00;;;;;;;38.96;39.43;100695.31;4788346;29;20939;-71
2022/03/25 03:40:14;;;;;;;13.03;6.80;;;;;;;39.01;39.61;100699.81;4788202;29;20510;-71
2022/03/25 03:42:41;;;;;;;17.13;6.27;;;;;;;38.97;39.05;100702.34;4773588;30;20500;-70
2022/03/25 03:45:08;;;;;;;13.30;6.23;;;;;;;38.94;39.20;100705.69;4788147;29;20435;-69
2022/03/25 03:47:38;;;;;;;11.50;6.13;;;;;;;39.04;38.92;100701.91;4773267;30;20521;-70
2022/03/25 03:50:06;;;;;;;14.27;6.07;;;;;;;39.01;38.83;100696.31;4773375;30;20885;-69
2022/03/25 03:52:32;;;;;;;17.83;6.40;;;;;;;39.02;38.69;100689.75;4788324;30;20932;-69
2022/03/25 03:54:59;;;;;;;18.57;7.73;;;;;;;39.04;38.76;100695.66;4788114;29;20442;-69
2022/03/25 03:57:25;;;;;;;12.53;6.73;;;;;;;39.01;38.89;100688.97;4787883;29;20946;-69
2022/03/25 03:59:51;;;;;;;20.97;7.70;;;;;;;39.03;39.04;100696.78;4788001;29;20466;-71
2022/03/25 04:02:17;;;;;;;20.03;6.53;;;;;;;39.00;39.12;100698.22;4787845;29;20512;-70
2022/03/25 04:04:43;;;;;;;26.07;7.70;;;;;;;38.98;39.21;100695.03;4788115;29;20494;-68
2022/03/25 04:07:09;;;;;;;15.80;6.07;;;;;;;38.97;39.31;100696.13;4787833;29;20471;-67
2022/03/25 04:09:39;;;;;;;11.77;5.73;;;;;;;39.00;38.98;100692.00;4788024;30;20443;-70
2022/03/25 04:12:06;;;;;;;15.87;7.37;;;;;;;38.98;39.01;100697.75;4787765;29;20431;-70
2022/03/25 04:14:32;;;;;;;16.70;6.23;;;;;;;38.97;39.31;100701.53;4788971;29;20410;-71
2022/03/25 04:16:58;;;;;;;19.33;7.60;;;;;;;38.93;39.45;100693.25;4787561;29;20466;-71
2022/03/25 04:19:24;;;;;;;18.33;6.30;;;;;;;38.97;39.87;100701.53;4787656;29;20439;-71
2022/03/25 04:21:50;;;;;;;18.13;6.10;;;;;;;38.95;39.71;100698.38;4787446;29;20435;-71
2022/03/25 04:24:16;;;;;;;15.20;6.20;;;;;;;38.93;40.07;100695.19;4787830;29;20446;-69
2022/03/25 04:26:42;;;;;;;21.43;6.10;;;;;;;38.91;39.90;100692.75;4788741;29;20459;-71
2022/03/25 04:29:08;;;;;;;11.53;5.87;;;;;;;38.91;40.02;100691.97;4787242;29;20458;-72
2022/03/25 04:31:34;;;;;;;14.00;5.60;;;;;;;38.88;39.81;100700.75;4787469;29;20442;-70
2022/03/25 04:34:00;;;;;;;15.80;5.40;;;;;;;38.85;39.71;100685.91;4788524;29;20419;-69
2022/03/25 04:36:26;;;;;;;21.07;6.07;;;;;;;38.86;39.81;100687.50;4787275;30;20439;-69
2022/03/25 04:38:52;;;;;;;13.90;8.27;;;;;;;38.94;39.29;100688.63;4787881;29;20931;-69
2022/03/25 04:41:18;;;;;;;12.87;7.40;;;;;;;38.78;39.96;100677.44;4787165;29;20537;-69
2022/03/25 04:43:44;;;;;;;17.03;6.00;;;;;;;38.67;39.98;100692.38;4788583;30;20419;-70
2022/03/25 04:46:10;;;;;;;15.93;6.40;;;;;;;38.43;40.50;100692.81;4787192;30;20559;-69
2022/03/25 04:48:37;;;;;;;17.00;6.70;;;;;;;38.43;41.26;100692.81;4788258;29;20475;-70
2022/03/25 04:51:03;;;;;;;18.20;7.67;;;;;;;38.21;41.98;100690.91;4772229;30;20507;-69
2022/03/25 04:53:29;;;;;;;14.73;9.37;;;;;;;38.05;42.70;100685.09;4788309;29;20501;-69
2022/03/25 04:55:55;;;;;;;24.33;11.13;;;;;;;37.96;43.56;100692.38;4787422;30;20441;-69
2022/03/25 04:58:21;;;;;;;22.47;9.93;;;;;;;38.07;43.51;100684.81;4786798;29;20459;-69
2022/03/25 05:00:48;;;;;;;24.60;11.70;;;;;;;37.72;44.23;100691.88;4786866;29;20937;-69
2022/03/25 05:03:14;;;;;;;23.10;12.07;;;;;;;37.80;44.28;100675.72;4788063;29;20869;-69
2022/03/25 05:05:42;;;;;;;15.20;10.67;;;;;;;37.82;43.90;100680.84;4771946;30;20557;-69
2022/03/25 05:08:11;;;;;;;22.57;10.63;;;;;;;37.86;44.50;100682.59;4786785;29;20446;-69
2022/03/25 05:10:38;;;;;;;26.07;14.73;;;;;;;37.74;44.51;100678.84;4786693;30;20428;-71
2022/03/25 05:13:04;;;;;;;22.40;12.27;;;;;;;37.70;44.69;100686.00;4786746;29;20428;-69
2022/03/25 05:15:30;;;;;;;32.23;13.53;;;;;;;37.96;44.35;100688.88;4787938;29;20940;-69
2022/03/25 05:17:57;;;;;;;27.50;13.73;;;;;;;37.81;44.47;100695.47;4786653;30;20437;-69
2022/03/25 05:20:24;;;;;;;26.30;14.50;;;;;;;37.90;44.49;100697.13;4786704;29;20876;-69
2022/03/25 05:22:51;;;;;;;36.30;16.50;;;;;;;37.57;45.02;100693.06;4786601;29;20451;-69
2022/03/25 05:25:18;;;;;;;27.73;15.70;;;;;;;37.80;44.90;100685.72;4756924;30;20475;-69
2022/03/25 05:27:58;;;;;;;27.60;16.30;;;;;;;37.56;45.28;100686.03;4771620;30;20438;-69
2022/03/25 05:30:30;;;;;;;25.20;17.20;;;;;;;37.61;45.35;100689.41;4786465;29;20427;-69
2022/03/25 05:32:56;;;;;;;36.80;17.43;;;;;;;37.71;45.28;100690.28;4771392;30;20463;-69
2022/03/25 05:35:24;;;;;;;45.60;19.27;;;;;;;37.67;45.60;100684.69;4786448;29;20524;-69
2022/03/25 05:37:51;;;;;;;35.37;20.33;;;;;;;37.74;45.11;100684.25;4786351;30;20903;-70
2022/03/25 05:40:20;;;;;;;25.30;17.23;;;;;;;37.73;45.42;100688.06;4786270;29;20467;-69
2022/03/25 05:42:47;;;;;;;31.83;21.70;;;;;;;37.62;45.07;100691.00;4771696;30;20432;-69
2022/03/25 05:45:14;;;;;;;33.37;22.03;;;;;;;37.48;45.76;100695.69;4786205;29;20478;-71
2022/03/25 05:47:40;;;;;;;40.53;22.37;;;;;;;37.44;45.69;100707.44;4785969;29;20985;-74
2022/03/25 05:50:10;;;;;;;37.63;25.13;;;;;;;37.20;46.40;100708.50;4786140;29;20830;-74
2022/03/25 05:52:36;;;;;;;46.30;25.17;;;;;;;37.26;46.52;100711.88;4786436;29;20419;-73
2022/03/25 05:55:04;;;;;;;43.63;23.77;;;;;;;37.46;46.07;100700.63;4785981;30;20455;-71
2022/03/25 05:57:31;;;;;;;37.13;22.60;;;;;;;37.44;45.87;100713.66;4780410;29;20443;-79
2022/03/25 05:59:58;;;;;;;41.87;22.40;;;;;;;37.54;45.82;100720.72;4773891;30;20515;-72
2022/03/25 06:02:26;;;;;;;51.33;23.40;;;;;;;37.61;45.70;100713.78;4783357;30;20456;-70
2022/03/25 06:04:53;;;;;;;38.80;18.47;;;;;;;37.59;45.69;100713.28;4782664;30;20466;-71
2022/03/25 06:07:19;;;;;;;41.43;21.20;;;;;;;37.77;45.44;100724.25;4784090;30;20467;-70
2022/03/25 06:09:45;;;;;;;31.20;17.53;;;;;;;37.99;44.31;100718.03;4784119;30;20950;-70
2022/03/25 06:12:11;;;;;;;36.27;18.43;;;;;;;37.88;44.66;100723.72;4785485;29;20557;-71
2022/03/25 06:14:38;;;;;;;33.40;19.30;;;;;;;38.00;44.57;100728.56;4779402;30;20469;-68
2022/03/25 06:17:05;;;;;;;23.13;17.73;;;;;;;38.04;44.53;100726.81;4781359;30;20432;-69
2022/03/25 06:19:32;;;;;;;33.93;19.63;;;;;;;38.04;44.46;100743.09;4784397;30;20427;-73
2022/03/25 06:21:58;;;;;;;37.83;19.03;;;;;;;38.02;44.75;100744.50;4780786;30;20427;-70
2022/03/25 06:24:25;;;;;;;33.97;16.60;;;;;;;37.72;45.06;100744.13;4785457;30;20431;-68
2022/03/25 06:26:52;;;;;;;31.20;16.33;;;;;;;37.54;45.11;100756.72;4786186;29;20489;-68
2022/03/25 06:29:19;;;;;;;31.23;15.13;;;;;;;37.78;44.76;100759.13;4785612;30;20516;-71
2022/03/25 06:31:46;;;;;;;34.23;16.67;;;;;;;37.93;44.57;100763.41;4783839;30;20442;-70
2022/03/25 06:34:20;;;;;;;24.73;14.20;;;;;;;38.00;44.57;100766.50;4785082;29;20527;-72
2022/03/25 06:36:47;;;;;;;35.17;15.60;;;;;;;38.20;44.01;100767.09;4785547;29;20469;-71
2022/03/25 06:39:13;;;;;;;39.80;19.63;;;;;;;38.03;44.36;100771.28;4785300;29;20520;-68
2022/03/25 06:41:39;;;;;;;41.43;22.83;;;;;;;38.11;44.33;100785.97;4784130;29;20431;-71
2022/03/25 06:44:06;;;;;;;38.83;21.70;;;;;;;38.12;43.98;100788.41;4777416;29;20481;-69
2022/03/25 06:46:33;;;;;;;31.00;18.77;;;;;;;38.24;43.70;100800.56;4776361;30;21051;-69
2022/03/25 06:48:59;;;;;;;34.13;20.20;;;;;;;38.03;44.30;100795.66;4781955;29;21018;-71
2022/03/25 06:51:25;;;;;;;41.67;22.07;;;;;;;38.19;44.14;100801.50;4784890;29;20439;-70
2022/03/25 06:53:52;;;;;;;44.57;25.63;;;;;;;38.20;44.16;100805.81;4779315;29;20440;-68
2022/03/25 06:56:18;;;;;;;62.23;28.53;;;;;;;38.34;43.99;100806.56;4776168;29;20450;-69
2022/03/25 06:58:44;;;;;;;38.97;23.57;;;;;;;38.31;44.17;100809.09;4775984;30;20497;-69
2022/03/25 07:01:12;;;;;;;41.20;23.60;;;;;;;38.21;44.16;100809.31;4775797;30;20458;-69
2022/03/25 07:03:38;;;;;;;49.33;25.00;;;;;;;38.01;44.48;100813.34;4763580;30;20514;-70
2022/03/25 07:06:05;;;;;;;45.03;26.90;;;;;;;38.23;44.04;100820.63;4764699;30;21254;-69
2022/03/25 07:08:31;;;;;;;48.70;30.40;;;;;;;38.24;44.76;100816.81;4777805;30;20456;-71
2022/03/25 07:10:59;;;;;;;61.27;30.00;;;;;;;38.24;44.57;100833.06;4763836;30;20438;-70
2022/03/25 07:13:27;;;;;;;47.47;28.70;;;;;;;38.34;44.09;100832.84;4779334;30;20505;-71
2022/03/25 07:15:54;;;;;;;46.33;30.20;;;;;;;38.27;44.34;100840.63;4764144;30;20421;-70
2022/03/25 07:18:20;;;;;;;66.23;34.57;;;;;;;38.34;43.89;100833.66;4778686;30;20529;-69
2022/03/25 07:20:46;;;;;;;60.07;29.07;;;;;;;38.24;43.87;100833.06;4779550;30;20423;-72
2022/03/25 07:23:13;;;;;;;47.67;31.47;;;;;;;38.25;44.05;100831.97;4777880;30;20432;-71
2022/03/25 07:25:39;;;;;;;47.37;30.60;;;;;;;38.39;44.13;100824.59;4777849;29;20536;-71
2022/03/25 07:28:05;;;;;;;60.77;30.27;;;;;;;38.47;43.96;100831.97;4780632;30;20412;-71
2022/03/25 07:30:31;;;;;;;48.97;26.83;;;;;;;38.60;43.79;100838.41;4777388;30;20855;-70
2022/03/25 07:32:58;;;;;;;51.10;31.20;;;;;;;38.23;44.37;100834.97;4778270;30;20428;-69
2022/03/25 07:35:25;;;;;;;55.40;28.83;;;;;;;38.14;44.54;100843.06;4778966;30;20431;-71
2022/03/25 07:37:51;;;;;;;50.30;28.23;;;;;;;38.31;44.46;100833.47;4777527;30;20436;-69
2022/03/25 07:40:17;;;;;;;45.53;27.07;;;;;;;38.11;44.76;100835.53;4771581;29;20531;-71
2022/03/25 07:42:45;;;;;;;48.57;26.60;;;;;;;38.30;44.50;100834.56;4770523;30;20439;-72
2022/03/25 07:45:13;;;;;;;38.20;22.90;;;;;;;38.23;44.15;100842.31;4755664;30;20819;-69
2022/03/25 07:47:48;;;;;;;44.00;24.87;;;;;;;38.46;44.04;100841.22;4782741;30;20504;-70
2022/03/25 07:50:16;;;;;;;43.43;24.30;;;;;;;38.41;43.88;100835.91;4784108;29;20423;-69
2022/03/25 07:52:43;;;;;;;44.77;25.80;;;;;;;38.53;43.97;100828.00;4774644;30;20519;-71
2022/03/25 07:55:10;;;;;;;37.40;25.80;;;;;;;38.65;43.32;100833.66;4770217;30;20442;-68
2022/03/25 07:57:38;;;;;;;32.17;12.80;;;;;;;38.62;42.25;100837.00;4778864;30;20440;-70
2022/03/25 08:00:11;;;;;;;24.83;11.47;;;;;;;38.57;42.59;100842.56;4787974;29;20508;-68
2022/03/25 08:02:42;;;;;;;32.47;11.80;;;;;;;38.68;42.39;100843.88;4787959;29;20587;-67
2022/03/25 08:05:09;;;;;;;14.53;9.50;;;;;;;38.78;41.93;100855.59;4773075;30;20435;-67
2022/03/25 08:07:48;;;;;;;19.90;8.93;;;;;;;38.48;42.57;100863.38;4787936;29;20419;-74
2022/03/25 08:10:21;;;;;;;18.47;8.73;;;;;;;38.69;42.37;100869.09;4787968;29;20439;-71
2022/03/25 08:12:48;;;;;;;20.13;10.60;;;;;;;38.88;41.99;100882.44;4786942;29;20939;-68
2022/03/25 08:15:15;;;;;;;19.00;10.73;;;;;;;38.95;41.74;100880.06;4788452;29;20404;-67
2022/03/25 08:17:48;;;;;;;36.33;10.57;;;;;;;38.85;42.13;100883.06;4784869;29;20927;-67
2022/03/25 08:20:19;;;;;;;15.63;10.57;;;;;;;38.88;41.82;100898.72;4755153;30;20429;-67
2022/03/25 08:22:46;;;;;;;19.13;8.10;;;;;;;39.06;41.46;100903.09;4771062;30;20412;-68
2022/03/25 08:28:00;;;;;;;21.73;10.07;;;;;;;39.01;41.26;100905.16;4770976;30;20919;-68
2022/03/25 08:30:28;;;;;;;18.90;7.30;;;;;;;39.02;41.42;100907.53;4769593;30;20439;-68
2022/03/25 08:32:54;;;;;;;20.27;9.10;;;;;;;39.16;41.07;100912.88;4771051;30;20455;-68
2022/03/25 08:35:20;;;;;;;16.17;8.57;;;;;;;39.12;41.05;100920.84;4769585;30;20436;-69
2022/03/25 08:37:46;;;;;;;14.30;6.60;;;;;;;39.11;41.03;100927.38;4754632;30;20437;-68
2022/03/25 08:40:12;;;;;;;15.10;7.90;;;;;;;39.17;40.62;100928.09;4770272;30;20905;-70
2022/03/25 08:42:38;;;;;;;18.00;8.87;;;;;;;39.25;40.55;100927.31;4770715;30;20861;-70
2022/03/25 08:45:05;;;;;;;19.10;8.17;;;;;;;39.28;40.54;100923.16;4769436;30;20996;-70
2022/03/25 08:47:31;;;;;;;11.77;5.87;;;;;;;39.29;40.14;100922.84;4769164;30;20531;-70
2022/03/25 08:49:57;;;;;;;12.83;5.57;;;;;;;39.25;40.44;100921.88;4769150;30;20491;-70
2022/03/25 08:52:24;;;;;;;15.30;7.23;;;;;;;39.23;40.21;100922.19;4769236;30;20436;-68
2022/03/25 08:54:50;;;;;;;17.60;6.80;;;;;;;39.31;40.12;100917.09;4770442;30;20451;-68
2022/03/25 08:57:16;;;;;;;16.53;5.77;;;;;;;39.07;40.52;100931.81;4769331;30;20428;-68
2022/03/25 08:59:42;;;;;;;22.17;7.00;;;;;;;38.86;41.09;100933.50;4769193;30;20451;-70
2022/03/25 09:02:09;;;;;;;18.53;8.40;;;;;;;39.00;41.17;100931.47;4769358;30;20463;-71
2022/03/25 09:04:35;;;;;;;21.43;7.90;;;;;;;39.23;40.63;100941.19;4769357;30;20475;-68
2022/03/25 09:07:01;;;;;;;14.87;7.13;;;;;;;39.23;40.48;100933.06;4769038;30;20496;-68
2022/03/25 09:09:27;;;;;;;11.17;5.83;;;;;;;39.40;40.27;100936.91;4770232;30;20820;-69
2022/03/25 09:11:53;;;;;;;19.50;7.50;;;;;;;39.26;40.63;100931.63;4768966;30;20925;-69
2022/03/25 09:14:19;;;;;;;20.23;8.20;;;;;;;39.39;40.57;100927.97;4770164;30;20514;-69
2022/03/25 09:16:45;;;;;;;14.13;6.87;;;;;;;39.43;40.36;100931.69;4770040;30;20513;-69
2022/03/25 09:19:11;;;;;;;16.47;6.93;;;;;;;39.46;40.46;100931.03;4768781;30;20524;-69
2022/03/25 09:21:36;;;;;;;14.00;8.57;;;;;;;39.44;40.64;100935.97;4768499;30;20836;-71
2022/03/25 09:24:03;;;;;;;20.43;7.30;;;;;;;39.46;40.40;100933.75;4768603;30;20464;-71
2022/03/25 09:26:29;;;;;;;16.33;7.23;;;;;;;39.22;40.66;100934.13;4768273;30;20502;-71
2022/03/25 09:28:54;;;;;;;16.50;6.60;;;;;;;39.42;40.48;100932.78;4769999;30;20424;-72
2022/03/25 09:31:20;;;;;;;16.40;6.33;;;;;;;39.47;40.51;100927.22;4768520;30;20428;-69
2022/03/25 09:33:46;;;;;;;15.77;8.00;;;;;;;39.43;40.86;100928.16;4768522;30;20210;-69
2022/03/25 09:36:14;;;;;;;14.50;7.00;;;;;;;39.50;40.58;100928.50;4769787;30;20408;-69
2022/03/25 09:38:41;;;;;;;23.87;7.93;;;;;;;39.53;40.45;100927.06;4768462;30;20300;-71
2022/03/25 09:41:07;;;;;;;10.87;6.37;;;;;;;39.60;40.10;100922.00;4768470;30;20527;-70
2022/03/25 09:43:34;;;;;;;12.93;7.47;;;;;;;39.64;40.23;100920.25;4768472;30;20463;-70
2022/03/25 09:46:01;;;;;;;19.73;6.77;;;;;;;39.37;40.42;100918.56;4769640;30;20460;-69
2022/03/25 09:48:27;;;;;;;18.63;6.83;;;;;;;39.30;40.83;100923.66;4768137;30;20870;-70
2022/03/25 09:50:53;;;;;;;23.77;6.50;;;;;;;39.13;40.87;100919.72;4768322;30;20440;-70
2022/03/25 09:53:19;;;;;;;15.70;6.67;;;;;;;39.13;40.95;100899.94;4768359;30;20577;-69
2022/03/25 09:55:46;;;;;;;20.50;8.13;;;;;;;38.99;41.14;100908.19;4769431;30;20451;-68
2022/03/25 09:58:22;;;;;;;12.57;7.30;;;;;;;39.08;40.85;100895.44;4768555;30;20962;-68
2022/03/25 10:00:53;;;;;;;22.73;7.10;;;;;;;39.05;41.07;100896.09;4768178;30;20440;-68
2022/03/25 10:03:31;;;;;;;21.57;8.90;;;;;;;39.07;41.50;100893.06;4753359;30;20456;-71
2022/03/25 10:05:58;;;;;;;14.50;5.57;;;;;;;39.04;41.12;100899.09;4768059;30;20507;-69
2022/03/25 10:08:30;;;;;;;13.10;5.70;;;;;;;39.21;41.08;100891.84;4753673;30;20435;-68
2022/03/25 10:10:56;;;;;;;12.77;6.20;;;;;;;39.44;40.19;100880.91;4768177;30;20554;-67
2022/03/25 10:13:22;;;;;;;15.70;7.20;;;;;;;39.67;40.23;100879.69;4753533;30;20518;-70
2022/03/25 10:15:48;;;;;;;9.53;5.57;;;;;;;39.70;40.32;100878.25;4768090;30;20442;-70
2022/03/25 10:18:17;;;;;;;10.60;5.50;;;;;;;39.71;39.90;100877.13;4767864;30;20223;-70
2022/03/25 10:20:43;;;;;;;12.93;6.70;;;;;;;39.75;39.84;100875.38;4768073;30;20433;-68
2022/03/25 10:23:15;;;;;;;14.00;6.10;;;;;;;39.69;39.98;100863.09;4767740;30;20440;-71
2022/03/25 10:25:47;;;;;;;13.53;7.13;;;;;;;39.73;40.21;100866.78;4767904;30;20511;-71
2022/03/25 10:28:41;;;;;;;15.37;6.23;;;;;;;39.82;39.93;100869.47;4767745;30;20976;-71
2022/03/25 10:31:18;;;;;;;21.17;7.10;;;;;;;39.85;40.20;100866.13;4767624;30;20497;-71
2022/03/25 10:33:48;;;;;;;21.57;8.07;;;;;;;39.97;39.99;100866.28;4767932;30;20821;-70
2022/03/25 10:36:20;;;;;;;14.40;6.60;;;;;;;39.84;39.94;100872.66;4767756;30;20436;-70
2022/03/25 10:38:50;;;;;;;13.77;7.70;;;;;;;39.79;39.71;100868.22;4771597;30;21027;-71
2022/03/25 10:41:21;;;;;;;20.37;9.73;;;;;;;39.95;39.48;100863.06;4771477;30;20988;-71
2022/03/25 10:43:56;;;;;;;15.73;8.77;;;;;;;39.87;39.56;100855.75;4773701;30;20443;-68
2022/03/25 10:46:31;;;;;;;16.73;9.87;;;;;;;39.70;40.00;100856.53;4788716;30;20493;-67
2022/03/25 10:48:58;;;;;;;18.23;9.47;;;;;;;39.42;40.86;100845.16;4786663;30;20636;-68
2022/03/25 10:51:25;;;;;;;21.47;7.00;;;;;;;39.50;40.33;100836.22;4773950;30;20430;-68
2022/03/25 10:54:07;;;;;;;20.93;9.27;;;;;;;39.37;40.75;100826.28;4788689;29;20967;-68
2022/03/25 10:56:55;;;;;;;21.87;8.27;;;;;;;39.80;40.06;100818.19;4788721;29;20498;-68
2022/03/25 10:59:27;;;;;;;19.00;6.50;;;;;;;39.60;40.04;100814.22;4787256;30;20574;-71
2022/03/25 11:02:02;;;;;;;15.43;6.27;;;;;;;39.74;40.08;100803.97;4787425;30;20454;-71
2022/03/25 11:04:29;;;;;;;12.30;6.33;;;;;;;39.80;39.36;100801.91;4788403;29;20466;-67
2022/03/25 11:06:56;;;;;;;14.20;6.40;;;;;;;39.88;39.58;100794.88;4789552;29;20896;-67
2022/03/25 11:09:24;;;;;;;11.60;6.47;;;;;;;39.77;39.61;100791.66;4788510;29;20431;-68
2022/03/25 11:11:52;;;;;;;11.93;5.30;;;;;;;39.68;39.63;100791.69;4774272;30;20408;-68
2022/03/25 11:14:19;;;;;;;15.43;7.00;;;;;;;39.67;40.11;100781.16;4789568;29;20939;-70
2022/03/25 11:16:56;;;;;;;14.50;6.47;;;;;;;39.75;39.28;100764.06;4779477;29;20419;-69
2022/03/25 11:19:24;;;;;;;10.43;7.10;;;;;;;39.72;39.21;100765.50;4779651;30;21003;-71